METAR Data
IDs: Format: Raw Decoded Include TAF

Data at: 0351 UTC 22 Mar 2019

KHPT 220335Z AUTO 30009KT 10SM CLR 03/00 A3007 RMK AO2
KHPT 220315Z AUTO 30011KT 10SM CLR 04/00 A3006 RMK AO2
KHPT 220255Z AUTO 28010KT 10SM CLR 04/00 A3005 RMK AO2
KHPT 220235Z AUTO 28009KT 10SM CLR 04/00 A3005 RMK AO2
KHPT 220215Z AUTO 28008KT 10SM CLR 04/00 A3006 RMK AO2
KHPT 220155Z AUTO 27009KT 10SM CLR 05/01 A3005 RMK AO2
KHPT 220135Z AUTO 27007KT 10SM CLR 05/01 A3005 RMK AO2
KHPT 220115Z AUTO 27007KT 10SM CLR 05/01 A3005 RMK AO2
KHPT 220055Z AUTO 29006KT 10SM CLR 05/01 A3006 RMK AO2
KHPT 220035Z AUTO 29009KT 10SM CLR 06/01 A3006 RMK AO2
KHPT 220015Z AUTO 28007KT 10SM CLR 06/01 A3005 RMK AO2
KHPT 212355Z AUTO 28007KT 10SM CLR 07/01 A3006 RMK AO2
KHPT 212335Z AUTO 29010KT 10SM CLR 08/01 A3005 RMK AO2
KHPT 212315Z AUTO 28012KT 10SM CLR 09/00 A3005 RMK AO2
KHPT 212255Z AUTO 28010G17KT 10SM CLR 09/00 A3005 RMK AO2
KHPT 212235Z AUTO 28013KT 10SM CLR 10/00 A3005 RMK AO2
KHPT 212215Z AUTO 28013G17KT 10SM CLR 10/00 A3005 RMK AO2
KHPT 212155Z AUTO 29014G19KT 10SM CLR 10/00 A3006 RMK AO2
KHPT 212135Z AUTO 29016KT 10SM CLR 10/00 A3007 RMK AO2
KHPT 212115Z AUTO 29013G19KT 10SM CLR 10/00 A3008 RMK AO2
KHPT 212055Z AUTO 29014KT 10SM CLR 10/00 A3008 RMK AO2
KHPT 212035Z AUTO 28012G17KT 10SM SCT023 09/00 A3009 RMK AO2
KHPT 212015Z AUTO 29015G18KT 10SM SCT023 09/00 A3009 RMK AO2
KHPT 211955Z AUTO 28013G19KT 10SM CLR 09/00 A3009 RMK AO2
KHPT 211935Z AUTO 30013G17KT 10SM SCT023 08/00 A3011 RMK AO2
KHPT 211915Z AUTO 29014G17KT 10SM SCT023 08/00 A3012 RMK AO2
KHPT 211855Z AUTO 29013G18KT 10SM SCT023 08/00 A3013 RMK AO2
KHPT 211835Z AUTO 29011G16KT 10SM SCT025 08/00 A3013 RMK AO2
KHPT 211815Z AUTO 30014KT 10SM SCT025 07/M01 A3014 RMK AO2
KHPT 211755Z AUTO 31012KT 10SM CLR 07/M01 A3014 RMK AO2
KHPT 211735Z AUTO 31011G15KT 10SM CLR 07/M02 A3014 RMK AO2
KHPT 211715Z AUTO 29009G15KT 10SM CLR 06/M01 A3015 RMK AO2
KHPT 211655Z AUTO 32009KT 10SM CLR 06/M02 A3015 RMK AO2
KHPT 211635Z AUTO 30008KT 10SM CLR 06/M02 A3015 RMK AO2
KHPT 211615Z AUTO 31010KT 10SM CLR 06/M02 A3015 RMK AO2
KHPT 211555Z AUTO 32007KT 10SM CLR 05/M02 A3015 RMK AO2
KHPT 211535Z AUTO 31007KT 10SM CLR 05/M01 A3015 RMK AO2
KHPT 211515Z AUTO 31008KT 10SM CLR 04/M01 A3015 RMK AO2
KHPT 211455Z AUTO 32008KT 10SM CLR 03/M01 A3015 RMK AO2
KHPT 211435Z AUTO 32008KT 10SM CLR 02/M02 A3015 RMK AO2
KHPT 211415Z AUTO 31008KT 10SM CLR 02/M02 A3015 RMK AO2
KHPT 211355Z AUTO 31010KT 10SM CLR 01/M02 A3015 RMK AO2
KHPT 211335Z AUTO 31008KT 10SM CLR 01/M02 A3015 RMK AO2
KHPT 211315Z AUTO 31011KT 10SM CLR 00/M02 A3014 RMK AO2
KHPT 211255Z AUTO 31009KT 10SM CLR 00/M02 A3013 RMK AO2
KHPT 211235Z AUTO 31008KT 10SM CLR 00/M02 A3013 RMK AO2
KHPT 211215Z AUTO 32007KT 10SM CLR 00/M02 A3013 RMK AO2
KHPT 211155Z AUTO 32007KT 10SM CLR 00/M02 A3013 RMK AO2
KHPT 211135Z AUTO 32006KT 10SM CLR 00/M02 A3012 RMK AO2
KHPT 211115Z AUTO 33008KT 10SM CLR 00/M02 A3012 RMK AO2
KHPT 211055Z AUTO 33008KT 10SM CLR 00/M02 A3011 RMK AO2
KHPT 211035Z AUTO 33008KT 10SM CLR 00/M02 A3011 RMK AO2
KHPT 211015Z AUTO 33008KT 10SM CLR 01/M02 A3010 RMK AO2
KHPT 210955Z AUTO 32006KT 10SM SCT042 00/M02 A3010 RMK AO2
KHPT 210935Z AUTO 33008KT 10SM CLR 01/M02 A3010 RMK AO2
KHPT 210915Z AUTO 33008KT 10SM CLR 01/M02 A3010 RMK AO2
KHPT 210855Z AUTO 32007KT 10SM SCT040 01/M02 A3010 RMK AO2
KHPT 210835Z AUTO 33007KT 10SM OVC040 02/M02 A3010 RMK AO2
KHPT 210815Z AUTO 32008KT 10SM OVC040 02/M01 A3010 RMK AO2
KHPT 210755Z AUTO 33008KT 10SM OVC040 02/M01 A3010 RMK AO2
KHPT 210735Z AUTO 33008KT 10SM OVC040 02/M01 A3010 RMK AO2
KHPT 210715Z AUTO 34009KT 10SM OVC040 02/M01 A3009 RMK AO2
KHPT 210655Z AUTO 33008KT 10SM OVC042 02/M01 A3008 RMK AO2
KHPT 210635Z AUTO 34009KT 10SM OVC042 02/M01 A3008 RMK AO2
KHPT 210615Z AUTO 33009KT 10SM OVC042 02/00 A3008 RMK AO2
KHPT 210555Z AUTO 10SM OVC042 02/00 A3007 RMK AO2
KHPT 210535Z AUTO 10SM OVC042 02/00 A3007 RMK AO2
KHPT 210515Z AUTO 10SM OVC042 02/00 A3007 RMK AO2
KHPT 210455Z AUTO 33009KT 10SM OVC042 02/00 A3007 RMK AO2
KHPT 210435Z AUTO 33009KT 10SM OVC042 02/00 A3007 RMK AO2
KHPT 210415Z AUTO 33009KT 10SM OVC044 02/00 A3006 RMK AO2
KHPT 210355Z AUTO 33009KT 10SM OVC046 02/00 A3006 RMK AO2
KHPT 210335Z AUTO 34010KT 10SM OVC046 02/00 A3006 RMK AO2
KHPT 210315Z AUTO 10SM OVC046 03/00 A3005 RMK AO2
KHPT 210255Z AUTO 33010KT 10SM OVC046 03/00 A3004 RMK AO2
KHPT 210235Z AUTO 32010KT 10SM OVC044 03/00 A3004 RMK AO2
KHPT 210215Z AUTO 32010KT 10SM OVC044 03/00 A3003 RMK AO2
KHPT 210155Z AUTO 33009KT 10SM OVC042 04/M01 A3002 RMK AO2
KHPT 210135Z AUTO 33009KT 10SM OVC042 04/M01 A3002 RMK AO2
KHPT 210115Z AUTO 32007KT 10SM OVC036 04/M01 A3001 RMK AO2
KHPT 210055Z AUTO 34010KT 10SM OVC034 05/M01 A3001 RMK AO2
KHPT 210035Z AUTO 34010KT 10SM OVC034 05/00 A3000 RMK AO2
KHPT 210015Z AUTO 34011G16KT 10SM OVC032 05/00 A2999 RMK AO2
KHPT 202355Z AUTO 33010KT 10SM OVC030 05/00 A2998 RMK AO2
KHPT 202335Z AUTO 33013G16KT 10SM SCT024 OVC030 06/00 A2998 RMK AO2
KHPT 202315Z AUTO 34013KT 10SM SCT026 06/00 A2997 RMK AO2
KHPT 202255Z AUTO 33014KT 10SM SCT023 07/00 A2995 RMK AO2
KHPT 202235Z AUTO 32012G19KT 10SM OVC023 07/00 A2994 RMK AO2
KHPT 202215Z AUTO 33017KT 10SM OVC021 07/00 A2994 RMK AO2
KHPT 202155Z AUTO 31016KT 10SM BKN023 BKN029 07/00 A2993 RMK AO2
KHPT 202135Z AUTO 31015G21KT 10SM SCT021 07/00 A2993 RMK AO2
KHPT 202115Z AUTO 30017G23KT 10SM BKN021 07/00 A2992 RMK AO2
KHPT 202055Z AUTO 31016KT 10SM BKN019 BKN024 07/00 A2992 RMK AO2
KHPT 202035Z AUTO 30016G19KT 10SM BKN021 OVC026 08/01 A2992 RMK AO2
KHPT 202015Z AUTO 30017G23KT 10SM BKN019 OVC023 07/00 A2992 RMK AO2
KHPT 201955Z AUTO 28014KT 10SM BKN019 07/00 A2992 RMK AO2
KHPT 201935Z AUTO 29016G22KT 10SM OVC019 06/00 A2992 RMK AO2
KHPT 201915Z AUTO 29014G20KT 10SM OVC019 06/00 A2994 RMK AO2
KHPT 201855Z AUTO 28012G20KT 10SM BKN017 BKN085 06/00 A2995 RMK AO2
KHPT 201835Z AUTO 27016G22KT 10SM SCT015 BKN085 06/00 A2994 RMK AO2
KHPT 201815Z AUTO 27015G19KT 10SM SCT013 06/00 A2996 RMK AO2
KHPT 201755Z AUTO 27014G19KT 10SM SCT009 05/00 A2997 RMK AO2
KHPT 201735Z AUTO 26014G20KT 10SM SCT007 05/00 A2997 RMK AO2
KHPT 201715Z AUTO 26016G20KT 10SM BKN005 03/00 A2998 RMK AO2
KHPT 201655Z AUTO 25016G21KT 7SM OVC005 03/00 A2998 RMK AO2
KHPT 201635Z AUTO 26017G22KT 5SM BR OVC003 02/02 A2999 RMK AO2
KHPT 201615Z AUTO 27015G20KT 4SM BR OVC003 01/01 A2999 RMK AO2
KHPT 201555Z AUTO 26014KT 3SM BR OVC003 00/00 A3000 RMK AO2